Time;durP1;ratioP1;P1;durP2;ratioP2;P2;SDS_P1;SDS_P2;PMS_P1;PMS_P2;Temp;Humidity;BMP_temperature;BMP_pressure;BME280_temperature;BME280_humidity;BME280_pressure;Samples;Min_cycle;Max_cycle;Signal;HPM_P1;HPM_P2
2023/03/19 00:02:14;;;;;;;16.95;13.30;;;9.00;99.90;;;;;;5041473;28;20388;-67
2023/03/19 00:04:40;;;;;;;17.48;14.35;;;9.10;99.90;;;;;;5034099;28;20054;-67
2023/03/19 00:07:05;;;;;;;18.48;15.13;;;9.10;99.90;;;;;;5032421;28;20053;-67
2023/03/19 00:09:31;;;;;;;17.58;14.70;;;9.10;99.90;;;;;;5052051;28;20088;-67
2023/03/19 00:11:57;;;;;;;20.92;15.68;;;9.10;99.90;;;;;;5041119;28;20067;-67
2023/03/19 00:14:23;;;;;;;21.40;15.43;;;9.10;99.90;;;;;;5047681;28;20544;-67
2023/03/19 00:16:48;;;;;;;19.20;16.02;;;9.10;99.90;;;;;;5046995;28;20055;-67
2023/03/19 00:19:14;;;;;;;21.90;16.52;;;9.10;99.90;;;;;;5047050;28;20049;-67
2023/03/19 00:21:40;;;;;;;22.48;15.88;;;9.10;99.90;;;;;;5046408;28;20128;-67
2023/03/19 00:24:06;;;;;;;17.23;15.45;;;9.10;99.90;;;;;;5049124;28;20056;-67
2023/03/19 00:26:34;;;;;;;20.23;15.20;;;9.10;99.90;;;;;;5046201;28;20440;-67
2023/03/19 00:29:01;;;;;;;19.08;14.93;;;9.10;99.90;;;;;;5046706;28;20095;-67
2023/03/19 00:31:28;;;;;;;20.02;14.70;;;9.10;99.90;;;;;;5062154;28;20041;-67
2023/03/19 00:33:57;;;;;;;17.73;14.55;;;9.00;99.90;;;;;;5048342;28;20051;-67
2023/03/19 00:36:24;;;;;;;16.23;14.40;;;9.00;99.90;;;;;;5048357;28;20524;-67
2023/03/19 00:38:50;;;;;;;17.52;13.75;;;9.00;99.90;;;;;;5045983;28;20040;-67
2023/03/19 00:41:17;;;;;;;20.70;14.05;;;9.00;99.90;;;;;;5048480;28;20037;-67
2023/03/19 00:43:43;;;;;;;16.42;14.07;;;8.90;99.90;;;;;;5045541;28;20258;-67
2023/03/19 00:46:09;;;;;;;15.63;14.00;;;8.90;99.90;;;;;;5030526;28;20576;-67
2023/03/19 00:48:34;;;;;;;15.23;13.73;;;8.90;99.90;;;;;;5045118;28;20053;-67
2023/03/19 00:51:05;;;;;;;17.60;13.82;;;8.80;99.90;;;;;;5047346;28;20048;-67
2023/03/19 00:53:31;;;;;;;20.83;13.18;;;8.80;99.90;;;;;;5047623;28;20083;-67
2023/03/19 00:55:58;;;;;;;18.70;13.88;;;8.90;99.90;;;;;;5046303;28;20373;-67
2023/03/19 00:58:24;;;;;;;22.40;13.70;;;8.90;99.90;;;;;;5062978;28;20044;-67
2023/03/19 01:00:53;;;;;;;14.73;13.18;;;8.90;99.90;;;;;;5026917;28;20403;-67
2023/03/19 01:03:20;;;;;;;16.35;13.57;;;8.90;99.90;;;;;;5047880;28;20459;-67
2023/03/19 01:05:49;;;;;;;20.38;14.63;;;8.90;99.90;;;;;;5044577;28;20080;-67
2023/03/19 01:08:16;;;;;;;17.42;14.30;;;9.00;99.90;;;;;;5046505;28;20049;-67
2023/03/19 01:10:43;;;;;;;17.20;14.15;;;9.00;99.90;;;;;;5046947;28;20110;-67
2023/03/19 01:13:09;;;;;;;18.45;14.38;;;9.00;99.90;;;;;;5045999;28;20045;-67
2023/03/19 01:15:40;;;;;;;18.10;14.57;;;9.00;99.90;;;;;;5046835;28;20080;-67
2023/03/19 01:18:06;;;;;;;21.10;14.35;;;9.00;99.90;;;;;;5045335;28;20084;-67
2023/03/19 01:20:33;;;;;;;15.35;13.80;;;9.00;99.90;;;;;;5046305;28;20033;-67
2023/03/19 01:23:00;;;;;;;19.73;13.95;;;9.00;99.90;;;;;;5044946;28;20059;-67
2023/03/19 01:25:26;;;;;;;19.20;14.50;;;9.10;99.90;;;;;;5047638;28;20059;-67
2023/03/19 01:27:52;;;;;;;16.77;14.18;;;9.00;99.90;;;;;;5045820;28;20068;-67
2023/03/19 01:30:18;;;;;;;18.45;15.02;;;9.00;99.90;;;;;;5047529;28;20120;-67
2023/03/19 01:32:43;;;;;;;21.33;16.20;;;9.00;99.90;;;;;;5045406;28;20124;-67
2023/03/19 01:35:09;;;;;;;20.70;15.23;;;9.00;99.90;;;;;;5045468;28;20087;-67
2023/03/19 01:37:36;;;;;;;24.15;15.48;;;9.00;99.90;;;;;;5038212;28;20487;-67
2023/03/19 01:40:04;;;;;;;19.60;15.88;;;9.00;99.90;;;;;;5044284;28;20570;-67
2023/03/19 01:42:31;;;;;;;23.17;16.23;;;9.00;99.90;;;;;;5045824;28;20490;-67
2023/03/19 01:44:57;;;;;;;20.98;16.60;;;9.00;99.90;;;;;;5061418;28;20412;-67
2023/03/19 01:47:26;;;;;;;20.60;16.63;;;9.00;99.90;;;;;;5045825;28;20063;-67
2023/03/19 01:49:54;;;;;;;21.50;16.92;;;9.00;99.90;;;;;;5045597;28;20052;-67
2023/03/19 01:52:22;;;;;;;19.65;16.38;;;8.90;99.90;;;;;;5044360;28;20491;-67
2023/03/19 01:54:49;;;;;;;19.92;16.55;;;9.00;99.90;;;;;;5046886;28;20048;-71
2023/03/19 01:57:15;;;;;;;26.02;16.80;;;9.00;99.90;;;;;;5045859;28;20416;-67
2023/03/19 01:59:45;;;;;;;24.73;15.65;;;8.90;99.90;;;;;;5046132;28;20091;-67
2023/03/19 02:02:23;;;;;;;21.80;16.52;;;9.00;99.90;;;;;;5044905;28;20045;-67
2023/03/19 02:04:55;;;;;;;21.98;15.98;;;8.90;99.90;;;;;;5046706;28;20033;-67
2023/03/19 02:07:21;;;;;;;20.40;16.58;;;9.00;99.90;;;;;;5045073;28;20650;-67
2023/03/19 02:09:48;;;;;;;20.83;15.88;;;8.90;99.90;;;;;;5044999;28;20056;-67
2023/03/19 02:12:15;;;;;;;21.88;16.58;;;8.90;99.90;;;;;;5046311;28;20063;-67
2023/03/19 02:14:41;;;;;;;21.75;17.52;;;8.90;99.90;;;;;;5044103;28;20049;-67
2023/03/19 02:17:07;;;;;;;23.83;17.00;;;8.90;99.90;;;;;;5049996;28;20103;-67
2023/03/19 02:19:42;;;;;;;25.33;16.67;;;9.00;99.90;;;;;;5049708;28;20056;-67
2023/03/19 02:22:10;;;;;;;23.13;17.25;;;9.00;99.90;;;;;;5048948;28;20854;-67
2023/03/19 02:24:48;;;;;;;20.75;17.13;;;9.00;99.90;;;;;;5049439;28;20048;-67
2023/03/19 02:27:17;;;;;;;28.17;16.75;;;9.10;99.90;;;;;;5042183;28;20092;-66
2023/03/19 02:29:43;;;;;;;20.70;15.85;;;9.10;99.90;;;;;;5050390;28;20093;-66
2023/03/19 02:32:08;;;;;;;21.77;16.38;;;9.10;99.90;;;;;;5047889;28;20135;-66
2023/03/19 02:34:38;;;;;;;23.45;16.95;;;9.10;99.90;;;;;;5050528;28;20106;-67
2023/03/19 02:37:26;;;;;;;22.52;17.90;;;9.20;99.90;;;;;;5048602;28;20501;-67
2023/03/19 02:40:03;;;;;;;23.08;16.55;;;9.10;99.90;;;;;;5047843;28;20136;-67
2023/03/19 02:42:29;;;;;;;22.40;17.52;;;9.20;99.90;;;;;;5024706;28;20053;-67
2023/03/19 02:44:56;;;;;;;24.23;18.40;;;9.10;99.90;;;;;;5047851;28;20041;-67
2023/03/19 02:47:23;;;;;;;25.13;18.27;;;9.10;99.90;;;;;;5049396;28;20410;-67
2023/03/19 02:49:49;;;;;;;28.30;18.90;;;9.10;99.90;;;;;;5047923;28;20487;-67
2023/03/19 02:52:15;;;;;;;29.20;18.73;;;9.10;99.90;;;;;;5048559;28;20048;-67
2023/03/19 02:54:41;;;;;;;23.67;17.67;;;9.10;99.90;;;;;;5050443;28;20048;-66
2023/03/19 02:57:07;;;;;;;25.02;19.15;;;9.10;99.90;;;;;;5047516;28;20067;-67
2023/03/19 02:59:33;;;;;;;25.05;17.98;;;9.10;99.90;;;;;;5049011;28;20072;-67
2023/03/19 03:01:58;;;;;;;22.50;17.38;;;9.10;99.90;;;;;;5048835;28;20083;-67
2023/03/19 03:04:25;;;;;;;21.85;18.63;;;9.10;99.90;;;;;;5048827;28;20049;-67
2023/03/19 03:06:50;;;;;;;20.42;16.48;;;9.10;99.90;;;;;;5047928;28;20045;-67
2023/03/19 03:09:17;;;;;;;23.20;17.60;;;9.10;99.90;;;;;;5048303;28;20041;-67
2023/03/19 03:11:42;;;;;;;20.10;16.83;;;9.10;99.90;;;;;;5048297;28;20048;-67
2023/03/19 03:14:08;;;;;;;24.38;17.00;;;9.10;99.90;;;;;;5047508;28;20041;-67
2023/03/19 03:16:35;;;;;;;25.15;16.98;;;9.00;99.90;;;;;;5048200;28;20045;-68
2023/03/19 03:19:01;;;;;;;21.75;16.50;;;9.00;99.90;;;;;;5047015;28;20052;-67
2023/03/19 03:21:27;;;;;;;31.58;15.82;;;9.00;99.90;;;;;;5048658;28;20048;-67
2023/03/19 03:23:52;;;;;;;18.23;15.05;;;9.00;99.90;;;;;;5063936;28;20131;-67
2023/03/19 03:26:18;;;;;;;17.38;14.93;;;9.00;99.90;;;;;;5046816;28;20045;-67
2023/03/19 03:28:44;;;;;;;23.35;15.95;;;9.00;99.90;;;;;;5046369;28;20060;-67
2023/03/19 03:31:10;;;;;;;22.52;15.45;;;9.00;99.90;;;;;;5048754;28;20045;-67
2023/03/19 03:33:36;;;;;;;21.10;15.18;;;8.90;99.90;;;;;;5048329;28;20399;-67
2023/03/19 03:36:02;;;;;;;20.25;16.42;;;8.90;99.90;;;;;;5047026;28;20041;-67
2023/03/19 03:38:28;;;;;;;19.23;15.88;;;8.90;99.90;;;;;;5048796;28;20063;-67
2023/03/19 03:40:54;;;;;;;20.60;15.35;;;8.90;99.90;;;;;;5047287;28;20503;-67
2023/03/19 03:43:20;;;;;;;22.55;16.48;;;8.80;99.90;;;;;;5047626;28;20514;-67
2023/03/19 03:45:47;;;;;;;22.15;16.83;;;8.90;99.90;;;;;;5046823;28;20142;-67
2023/03/19 03:48:13;;;;;;;23.40;17.27;;;8.90;99.90;;;;;;5047644;28;20431;-67
2023/03/19 03:50:39;;;;;;;22.58;17.95;;;8.90;99.90;;;;;;5049200;28;20110;-67
2023/03/19 03:53:05;;;;;;;23.23;18.27;;;8.80;99.90;;;;;;5029919;28;20043;-67
2023/03/19 03:55:31;;;;;;;27.70;18.45;;;8.80;99.90;;;;;;5049097;28;20048;-67
2023/03/19 03:57:57;;;;;;;28.55;19.23;;;8.80;99.90;;;;;;5047208;28;20406;-67
2023/03/19 04:00:24;;;;;;;23.23;18.95;;;8.80;99.90;;;;;;5047925;28;20037;-67
2023/03/19 04:02:50;;;;;;;28.92;20.15;;;8.90;99.90;;;;;;5046820;28;20060;-67
2023/03/19 04:05:16;;;;;;;28.88;19.80;;;8.80;99.90;;;;;;5047163;28;20044;-67
2023/03/19 04:07:42;;;;;;;29.23;20.02;;;8.80;99.90;;;;;;5046929;28;20056;-67
2023/03/19 04:10:10;;;;;;;29.00;20.75;;;8.80;99.90;;;;;;5039308;28;20048;-67
2023/03/19 04:12:36;;;;;;;29.50;20.27;;;8.80;99.90;;;;;;5031141;28;20049;-67
2023/03/19 04:15:04;;;;;;;30.25;21.50;;;8.80;99.90;;;;;;5045893;28;20138;-67
2023/03/19 04:17:29;;;;;;;27.50;19.70;;;8.80;99.90;;;;;;5047495;28;20969;-67
2023/03/19 04:19:56;;;;;;;28.67;20.05;;;8.80;99.90;;;;;;5046503;28;20044;-67
2023/03/19 04:22:21;;;;;;;26.85;21.20;;;8.80;99.90;;;;;;5047133;28;20051;-67
2023/03/19 04:24:47;;;;;;;28.65;20.50;;;8.80;99.90;;;;;;5046170;28;20049;-67
2023/03/19 04:27:13;;;;;;;30.60;19.63;;;8.70;99.90;;;;;;5048170;28;20448;-67
2023/03/19 04:29:39;;;;;;;28.30;19.90;;;8.80;99.90;;;;;;5048211;28;20085;-66
2023/03/19 04:32:05;;;;;;;31.48;19.85;;;8.80;99.90;;;;;;5047431;28;20057;-67
2023/03/19 04:34:30;;;;;;;28.67;21.00;;;8.80;99.90;;;;;;5046971;28;20088;-67
2023/03/19 04:36:57;;;;;;;27.80;19.30;;;8.80;99.90;;;;;;5045504;28;20436;-67
2023/03/19 04:39:24;;;;;;;29.38;19.60;;;8.90;99.90;;;;;;5048154;28;20060;-67
2023/03/19 04:41:50;;;;;;;26.75;19.58;;;8.90;99.90;;;;;;5046011;28;20060;-67
2023/03/19 04:44:16;;;;;;;31.30;19.52;;;8.90;99.90;;;;;;5048365;28;20048;-67
2023/03/19 04:46:44;;;;;;;26.95;18.73;;;8.90;99.90;;;;;;5046072;28;20545;-67
2023/03/19 04:49:11;;;;;;;23.00;18.15;;;9.00;99.90;;;;;;5045826;28;20041;-67
2023/03/19 04:51:37;;;;;;;28.55;18.95;;;8.90;99.90;;;;;;5046867;28;20120;-67
2023/03/19 04:54:04;;;;;;;29.17;18.48;;;9.00;99.90;;;;;;5047440;28;20041;-67
2023/03/19 04:56:31;;;;;;;30.85;18.73;;;9.00;99.90;;;;;;5046050;28;20053;-66
2023/03/19 04:58:57;;;;;;;27.73;19.90;;;9.00;99.90;;;;;;5047258;28;20068;-67
2023/03/19 05:01:22;;;;;;;30.58;19.17;;;9.00;99.90;;;;;;5047606;28;20087;-67
2023/03/19 05:03:49;;;;;;;26.05;17.92;;;9.00;99.90;;;;;;5062902;28;20383;-67
2023/03/19 05:06:16;;;;;;;26.48;18.33;;;9.00;99.90;;;;;;5047011;28;20076;-67
2023/03/19 05:08:42;;;;;;;28.17;17.23;;;9.00;99.90;;;;;;5048128;28;20045;-67
2023/03/19 05:11:08;;;;;;;25.75;17.63;;;9.00;99.90;;;;;;5045651;28;20067;-67
2023/03/19 05:13:34;;;;;;;24.90;16.13;;;9.00;99.90;;;;;;5046216;28;20495;-67
2023/03/19 05:16:00;;;;;;;24.33;16.13;;;9.10;99.90;;;;;;5044779;28;20487;-67
2023/03/19 05:18:26;;;;;;;20.30;14.45;;;9.10;99.90;;;;;;5045897;28;20091;-67
2023/03/19 05:20:53;;;;;;;23.13;15.50;;;9.10;99.90;;;;;;5046736;28;20045;-67
2023/03/19 05:23:19;;;;;;;21.08;14.38;;;9.20;99.90;;;;;;5047287;28;20045;-67
2023/03/19 05:25:45;;;;;;;21.00;14.30;;;9.20;99.90;;;;;;5046504;28;20554;-67
2023/03/19 05:28:11;;;;;;;24.50;14.90;;;9.20;99.90;;;;;;5044694;28;20574;-67
2023/03/19 05:30:37;;;;;;;25.52;14.80;;;9.20;99.90;;;;;;5029135;28;20071;-67
2023/03/19 05:33:03;;;;;;;19.77;14.35;;;9.20;99.90;;;;;;5044814;28;20453;-67
2023/03/19 05:35:29;;;;;;;23.25;14.55;;;9.20;99.90;;;;;;5047146;28;20049;-67
2023/03/19 05:37:55;;;;;;;20.70;14.13;;;9.20;99.90;;;;;;5046561;28;20048;-67
2023/03/19 05:40:22;;;;;;;16.23;12.88;;;9.20;99.90;;;;;;5035366;28;20410;-68
2023/03/19 05:42:48;;;;;;;18.45;12.48;;;9.20;99.90;;;;;;5046951;28;20048;-67
2023/03/19 05:45:14;;;;;;;20.27;13.18;;;9.30;99.90;;;;;;5045173;28;20045;-67
2023/03/19 05:47:40;;;;;;;15.70;11.35;;;9.20;99.90;;;;;;5045529;28;20071;-67
2023/03/19 05:50:06;;;;;;;23.60;11.35;;;9.20;99.90;;;;;;5043941;28;20067;-68
2023/03/19 05:52:32;;;;;;;18.83;10.68;;;9.20;99.90;;;;;;5047205;28;20055;-68
2023/03/19 05:54:58;;;;;;;16.92;10.45;;;9.20;99.90;;;;;;5044713;28;20041;-67
2023/03/19 05:57:24;;;;;;;14.70;9.82;;;9.20;99.90;;;;;;5029113;28;20091;-68
2023/03/19 05:59:50;;;;;;;15.10;9.50;;;9.20;99.90;;;;;;5044823;28;20041;-67
2023/03/19 06:02:16;;;;;;;14.82;9.82;;;9.10;99.90;;;;;;5038741;28;20057;-67
2023/03/19 06:04:42;;;;;;;14.98;9.27;;;9.20;99.90;;;;;;5043699;28;20041;-67
2023/03/19 06:07:07;;;;;;;13.40;8.80;;;9.10;99.90;;;;;;5038564;28;20512;-67
2023/03/19 06:09:33;;;;;;;13.80;8.68;;;9.10;99.90;;;;;;5042532;28;20375;-67
2023/03/19 06:11:59;;;;;;;14.75;9.30;;;9.00;99.90;;;;;;5046164;28;20033;-67
2023/03/19 06:14:25;;;;;;;13.32;8.23;;;8.90;99.90;;;;;;5046772;28;20033;-67
2023/03/19 06:16:50;;;;;;;10.45;8.38;;;8.90;99.90;;;;;;5045889;28;20080;-67
2023/03/19 06:19:16;;;;;;;13.73;7.95;;;8.80;99.90;;;;;;5029033;28;20041;-67
2023/03/19 06:21:42;;;;;;;13.10;8.43;;;8.80;99.90;;;;;;5028055;28;20053;-67
2023/03/19 06:24:08;;;;;;;9.48;7.25;;;8.80;99.90;;;;;;5046504;28;20076;-67
2023/03/19 06:26:34;;;;;;;11.90;8.05;;;8.80;99.90;;;;;;5045613;28;20505;-67
2023/03/19 06:29:00;;;;;;;12.27;8.63;;;8.80;99.90;;;;;;5044118;28;20593;-68
2023/03/19 06:31:26;;;;;;;10.23;7.60;;;8.80;99.90;;;;;;5044560;28;20084;-68
2023/03/19 06:33:53;;;;;;;16.02;8.25;;;8.80;99.90;;;;;;5045749;28;20091;-67
2023/03/19 06:36:19;;;;;;;10.20;8.25;;;8.90;99.90;;;;;;5046057;28;20049;-68
2023/03/19 06:38:45;;;;;;;10.48;8.00;;;9.00;99.90;;;;;;5044426;28;20132;-67
2023/03/19 06:41:11;;;;;;;8.55;7.10;;;9.10;99.90;;;;;;5044722;28;20120;-67
2023/03/19 06:43:40;;;;;;;11.38;7.50;;;9.20;99.90;;;;;;5046743;28;20051;-67
2023/03/19 06:46:05;;;;;;;8.82;7.65;;;9.30;99.90;;;;;;5045955;28;20049;-68
2023/03/19 06:48:32;;;;;;;11.40;7.20;;;9.30;99.90;;;;;;5045066;28;20045;-67
2023/03/19 06:50:58;;;;;;;10.02;8.00;;;9.40;99.90;;;;;;5045653;28;20734;-67
2023/03/19 06:53:24;;;;;;;8.65;7.60;;;9.50;99.90;;;;;;5044990;28;20037;-67
2023/03/19 06:55:50;;;;;;;10.80;7.60;;;9.60;99.90;;;;;;5044049;28;20037;-67
2023/03/19 06:58:16;;;;;;;10.23;7.13;;;9.50;99.90;;;;;;5045117;28;20056;-67
2023/03/19 07:00:42;;;;;;;13.85;7.13;;;9.40;99.90;;;;;;5045168;28;20052;-67
2023/03/19 07:03:09;;;;;;;9.18;6.75;;;9.50;99.90;;;;;;5045332;28;20057;-68
2023/03/19 07:05:34;;;;;;;13.02;7.65;;;9.50;99.90;;;;;;5048885;28;20582;-67
2023/03/19 07:08:00;;;;;;;12.45;7.68;;;9.70;99.90;;;;;;5048909;28;20132;-67
2023/03/19 07:10:26;;;;;;;15.52;7.82;;;9.80;99.90;;;;;;5049124;28;20441;-68
2023/03/19 07:12:52;;;;;;;11.60;8.05;;;9.90;99.90;;;;;;5042733;28;20042;-67
2023/03/19 07:15:20;;;;;;;15.10;8.05;;;10.10;99.90;;;;;;5040420;28;20044;-67
2023/03/19 07:17:46;;;;;;;11.95;8.05;;;10.10;99.90;;;;;;5047828;28;20044;-67
2023/03/19 07:20:13;;;;;;;12.65;9.00;;;10.10;99.90;;;;;;5049367;28;20052;-68
2023/03/19 07:22:39;;;;;;;12.43;8.10;;;10.20;99.90;;;;;;5048151;28;20094;-67
2023/03/19 07:25:05;;;;;;;11.77;8.57;;;10.30;99.90;;;;;;5047436;28;20040;-68
2023/03/19 07:27:31;;;;;;;11.25;8.48;;;10.40;99.90;;;;;;5031534;28;20053;-67
2023/03/19 07:29:57;;;;;;;11.85;8.80;;;10.40;99.90;;;;;;5047173;28;20411;-68
2023/03/19 07:32:22;;;;;;;12.75;8.43;;;10.50;99.90;;;;;;5048831;28;20110;-67
2023/03/19 07:34:48;;;;;;;12.85;8.75;;;10.60;99.90;;;;;;5057737;28;20041;-67
2023/03/19 07:37:14;;;;;;;12.27;8.63;;;10.70;99.90;;;;;;5049304;28;20449;-68
2023/03/19 07:39:40;;;;;;;13.45;9.02;;;10.70;99.90;;;;;;5049032;28;20049;-68
2023/03/19 07:42:06;;;;;;;10.68;8.32;;;10.80;99.90;;;;;;5048452;28;20085;-68
2023/03/19 07:44:34;;;;;;;7.68;6.75;;;10.90;99.90;;;;;;5049166;28;20043;-67
2023/03/19 07:46:59;;;;;;;9.27;7.32;;;11.00;99.90;;;;;;5046796;28;20052;-67
2023/03/19 07:49:25;;;;;;;10.40;7.43;;;11.00;99.90;;;;;;5049685;28;20045;-67
2023/03/19 07:51:51;;;;;;;11.80;8.25;;;11.00;99.90;;;;;;5048260;28;20078;-67
2023/03/19 07:54:17;;;;;;;12.20;8.60;;;11.10;99.90;;;;;;5038661;28;20398;-67
2023/03/19 07:56:43;;;;;;;12.48;9.32;;;11.20;99.90;;;;;;5046950;28;20053;-67
2023/03/19 07:59:08;;;;;;;13.65;9.27;;;11.30;99.90;;;;;;5046919;28;20049;-68
2023/03/19 08:01:34;;;;;;;14.80;9.63;;;11.40;99.90;;;;;;5047153;28;20056;-67
2023/03/19 08:04:00;;;;;;;13.35;7.35;;;11.50;99.90;;;;;;5044827;28;20134;-67
2023/03/19 08:06:26;;;;;;;12.40;7.90;;;11.50;99.90;;;;;;5048012;28;20073;-67
2023/03/19 08:08:52;;;;;;;11.30;7.80;;;11.50;99.90;;;;;;5044281;28;20048;-67
2023/03/19 08:11:18;;;;;;;9.00;7.70;;;11.50;99.90;;;;;;5054150;28;20049;-67
2023/03/19 08:13:44;;;;;;;10.88;8.45;;;11.50;99.90;;;;;;5031648;28;20128;-67
2023/03/19 08:16:10;;;;;;;10.23;8.13;;;11.60;99.90;;;;;;5033829;28;20128;-67
2023/03/19 08:18:36;;;;;;;9.07;8.02;;;11.60;99.90;;;;;;5032531;28;20049;-67
2023/03/19 08:21:02;;;;;;;10.75;8.32;;;11.60;99.90;;;;;;5033198;28;20045;-67
2023/03/19 08:23:28;;;;;;;10.88;7.38;;;11.70;99.90;;;;;;5040340;28;20186;-67
2023/03/19 08:25:55;;;;;;;10.23;8.52;;;11.80;99.90;;;;;;5051407;28;20124;-67
2023/03/19 08:28:22;;;;;;;12.70;9.80;;;11.90;99.90;;;;;;5032955;28;20627;-67
2023/03/19 08:30:48;;;;;;;10.68;9.13;;;12.00;99.90;;;;;;5035160;28;20041;-68
2023/03/19 08:33:14;;;;;;;11.38;8.68;;;12.10;99.90;;;;;;5047012;28;20051;-67
2023/03/19 08:35:40;;;;;;;10.55;8.63;;;12.10;99.90;;;;;;5046268;28;20057;-67
2023/03/19 08:38:06;;;;;;;13.63;9.63;;;12.20;99.90;;;;;;5061935;28;20045;-67
2023/03/19 08:40:32;;;;;;;19.08;8.77;;;12.20;99.90;;;;;;5041725;28;20514;-67
2023/03/19 08:42:58;;;;;;;12.40;9.10;;;12.30;99.90;;;;;;5038593;28;20537;-67
2023/03/19 08:45:24;;;;;;;11.98;9.48;;;12.30;99.90;;;;;;5053619;28;20049;-67
2023/03/19 08:47:50;;;;;;;11.02;8.23;;;12.40;99.90;;;;;;5031718;28;20047;-67
2023/03/19 08:50:16;;;;;;;9.57;8.57;;;12.50;99.90;;;;;;5029118;28;20067;-67
2023/03/19 08:52:41;;;;;;;12.85;8.60;;;12.50;99.90;;;;;;5037905;28;20057;-66
2023/03/19 08:55:08;;;;;;;10.70;9.00;;;12.50;99.90;;;;;;5032710;28;20048;-67
2023/03/19 08:57:34;;;;;;;10.98;7.75;;;12.60;99.90;;;;;;5034641;28;20092;-67
2023/03/19 09:00:00;;;;;;;10.23;8.30;;;12.70;99.90;;;;;;5035281;28;20077;-67
2023/03/19 09:02:26;;;;;;;11.10;8.05;;;12.60;99.90;;;;;;5051811;28;20092;-67
2023/03/19 09:04:52;;;;;;;11.10;8.48;;;12.60;99.90;;;;;;5022933;28;20052;-67
2023/03/19 09:07:18;;;;;;;11.90;8.68;;;12.50;99.90;;;;;;5037690;28;20054;-67
2023/03/19 09:09:44;;;;;;;7.38;6.68;;;12.50;99.90;;;;;;5043144;28;20087;-67
2023/03/19 09:12:13;;;;;;;8.93;6.35;;;12.50;99.90;;;;;;5037897;28;20045;-67
2023/03/19 09:14:39;;;;;;;10.32;7.57;;;12.50;99.90;;;;;;5037137;28;20361;-67
2023/03/19 09:17:05;;;;;;;10.32;6.95;;;12.50;99.90;;;;;;5040009;28;20119;-67
2023/03/19 09:19:32;;;;;;;8.05;7.25;;;12.50;99.90;;;;;;5037391;28;20057;-67
2023/03/19 09:21:58;;;;;;;11.55;7.57;;;12.60;99.90;;;;;;5044417;28;20045;-67
2023/03/19 09:24:25;;;;;;;9.00;7.40;;;12.60;99.90;;;;;;5040004;28;20076;-67
2023/03/19 09:26:51;;;;;;;9.15;7.72;;;12.70;99.90;;;;;;5034006;28;20041;-67
2023/03/19 09:29:16;;;;;;;12.48;8.13;;;12.80;99.90;;;;;;5033014;28;20054;-67
2023/03/19 09:31:42;;;;;;;11.13;7.43;;;12.80;99.90;;;;;;5049543;28;20050;-67
2023/03/19 09:34:08;;;;;;;12.68;7.45;;;12.70;99.90;;;;;;5033578;28;20219;-67
2023/03/19 09:36:35;;;;;;;10.15;6.72;;;13.00;99.90;;;;;;5029460;28;20402;-67
2023/03/19 09:39:03;;;;;;;8.77;6.03;;;13.00;99.90;;;;;;5041406;28;20466;-67
2023/03/19 09:41:35;;;;;;;8.88;6.97;;;12.90;99.90;;;;;;5030629;28;20103;-67
2023/03/19 09:44:03;;;;;;;10.98;6.80;;;12.80;99.30;;;;;;5043447;28;20383;-67
2023/03/19 09:46:43;;;;;;;7.00;5.53;;;12.80;99.90;;;;;;5044391;28;20740;-67
2023/03/19 09:49:22;;;;;;;5.28;4.78;;;12.90;99.90;;;;;;5041937;28;20098;-66
2023/03/19 09:52:05;;;;;;;6.15;4.95;;;13.00;99.90;;;;;;5041635;28;20407;-67
2023/03/19 09:54:38;;;;;;;4.72;4.25;;;13.30;99.90;;;;;;5034610;28;20045;-67
2023/03/19 09:57:04;;;;;;;8.80;5.10;;;13.60;99.90;;;;;;5032122;28;20041;-67
2023/03/19 09:59:31;;;;;;;6.97;4.75;;;13.90;99.10;;;;;;5040355;28;20159;-67
2023/03/19 10:02:05;;;;;;;5.90;4.95;;;13.90;97.80;;;;;;5041776;28;20108;-67
2023/03/19 10:04:47;;;;;;;6.18;4.90;;;14.00;97.10;;;;;;5043770;28;20894;-67
2023/03/19 10:07:36;;;;;;;6.90;4.22;;;14.10;96.00;;;;;;5040020;28;20112;-67
2023/03/19 10:10:24;;;;;;;5.07;4.57;;;14.00;93.90;;;;;;5033348;28;20071;-68
2023/03/19 10:13:05;;;;;;;4.20;3.80;;;13.90;93.60;;;;;;5043793;28;20175;-67
2023/03/19 10:15:32;;;;;;;4.47;4.10;;;13.80;94.90;;;;;;5040343;28;20037;-68
2023/03/19 10:18:18;;;;;;;5.65;4.00;;;13.70;92.90;;;;;;5040998;28;20128;-67
2023/03/19 10:20:56;;;;;;;6.38;4.03;;;13.80;93.90;;;;;;5035195;28;20449;-67
2023/03/19 10:23:32;;;;;;;6.45;3.85;;;14.00;94.20;;;;;;5029423;28;20042;-66
2023/03/19 10:26:00;;;;;;;5.13;4.63;;;14.00;91.90;;;;;;5033025;28;20049;-67
2023/03/19 10:28:28;;;;;;;5.82;5.18;;;13.90;92.10;;;;;;5022125;28;20057;-66
2023/03/19 10:31:17;;;;;;;5.40;4.72;;;14.00;93.30;;;;;;5044271;28;20186;-67
2023/03/19 10:33:50;;;;;;;7.25;4.75;;;14.00;93.90;;;;;;5022125;28;20072;-67
2023/03/19 10:36:21;;;;;;;9.63;5.03;;;14.20;93.50;;;;;;5032569;28;20045;-66
2023/03/19 10:38:46;;;;;;;;;;;14.20;89.50;;;;;;5016619;28;20057;-66
2023/03/19 10:41:39;;;;;;;6.00;4.82;;;14.30;89.70;;;;;;5047511;28;20370;-66
2023/03/19 10:44:13;;;;;;;5.25;4.75;;;14.40;90.20;;;;;;5035820;28;20107;-66
2023/03/19 10:46:39;;;;;;;6.07;4.10;;;14.30;90.00;;;;;;5037151;28;20088;-66
2023/03/19 10:49:12;;;;;;;6.85;4.13;;;14.20;90.20;;;;;;5032792;28;20052;-66
2023/03/19 10:51:38;;;;;;;4.78;3.88;;;14.00;81.10;;;;;;5035795;28;20060;-66
2023/03/19 10:54:25;;;;;;;4.35;3.95;;;13.80;89.00;;;;;;5039801;28;20045;-66
2023/03/19 10:56:55;;;;;;;5.70;4.00;;;13.80;88.20;;;;;;5044273;28;20047;-66
2023/03/19 10:59:32;;;;;;;4.20;3.55;;;13.80;88.80;;;;;;5048821;28;20198;-66
2023/03/19 11:02:14;;;;;;;3.78;3.45;;;13.80;89.30;;;;;;5038488;28;20464;-66
2023/03/19 11:04:40;;;;;;;4.43;3.85;;;13.80;90.50;;;;;;5033800;28;20032;-66
2023/03/19 11:07:11;;;;;;;4.85;4.35;;;13.90;90.70;;;;;;5041907;28;20477;-66
2023/03/19 11:09:44;;;;;;;8.43;4.95;;;13.90;90.40;;;;;;5040134;28;20395;-66
2023/03/19 11:12:19;;;;;;;4.20;3.80;;;13.90;91.10;;;;;;5048238;28;20056;-66
2023/03/19 11:14:48;;;;;;;4.28;3.88;;;14.00;87.10;;;;;;5043180;28;20049;-66
2023/03/19 11:17:22;;;;;;;4.40;4.00;;;13.90;87.30;;;;;;5045844;28;20419;-66
2023/03/19 11:19:57;;;;;;;4.78;4.38;;;13.90;90.70;;;;;;5040249;28;20049;-66
2023/03/19 11:22:36;;;;;;;6.38;4.43;;;14.00;90.80;;;;;;5028136;28;20462;-66
2023/03/19 11:25:24;;;;;;;5.00;4.50;;;14.10;92.30;;;;;;5038300;28;20127;-66
2023/03/19 11:28:25;;;;;;;5.63;4.90;;;14.10;90.00;;;;;;5036068;28;20077;-66
2023/03/19 11:30:56;;;;;;;5.97;4.57;;;14.20;90.30;;;;;;5023782;28;20057;-67
2023/03/19 11:33:49;;;;;;;5.78;5.28;;;14.10;87.40;;;;;;5062438;28;20102;-66
2023/03/19 11:36:32;;;;;;;4.85;4.13;;;14.30;91.00;;;;;;5035448;28;20051;-66
2023/03/19 11:39:14;;;;;;;4.55;4.15;;;14.20;87.30;;;;;;5047742;28;20514;-66
2023/03/19 11:41:49;;;;;;;4.85;4.40;;;14.00;91.10;;;;;;5040076;28;20045;-66
2023/03/19 11:44:15;;;;;;;5.32;4.32;;;13.90;86.90;;;;;;5041274;28;20053;-66
2023/03/19 11:46:55;;;;;;;5.25;4.40;;;14.00;89.20;;;;;;5035270;28;20380;-66
2023/03/19 11:49:36;;;;;;;5.13;4.25;;;14.00;90.50;;;;;;5040803;28;20048;-66
2023/03/19 11:52:01;;;;;;;4.50;3.95;;;14.00;90.90;;;;;;5035935;28;20049;-66
2023/03/19 11:54:44;;;;;;;4.68;3.90;;;14.10;88.90;;;;;;5044136;28;20045;-66
2023/03/19 11:57:20;;;;;;;5.88;4.72;;;14.10;87.60;;;;;;5043933;28;20037;-66
2023/03/19 12:00:00;;;;;;;6.40;4.53;;;14.20;88.50;;;;;;5045225;28;20047;-66
2023/03/19 12:02:52;;;;;;;6.13;4.10;;;14.10;84.70;;;;;;5038807;28;20068;-66
2023/03/19 12:05:34;;;;;;;4.85;4.20;;;14.00;89.20;;;;;;5035185;28;20426;-66
2023/03/19 12:08:02;;;;;;;9.05;4.55;;;14.00;92.10;;;;;;5054915;28;20052;-66
2023/03/19 12:10:32;;;;;;;4.15;3.75;;;14.00;91.00;;;;;;5041371;28;20554;-66
2023/03/19 12:13:09;;;;;;;4.43;4.00;;;13.90;82.80;;;;;;5034152;28;20053;-66
2023/03/19 12:16:03;;;;;;;3.85;3.55;;;13.80;87.70;;;;;;5047000;28;20411;-66
2023/03/19 12:18:53;;;;;;;6.25;4.25;;;13.80;91.60;;;;;;5038621;28;20041;-66
2023/03/19 12:21:25;;;;;;;4.85;4.38;;;13.80;89.70;;;;;;5040794;28;20049;-66
2023/03/19 12:24:27;;;;;;;4.93;4.00;;;13.80;89.00;;;;;;5032682;28;20180;-66
2023/03/19 12:27:13;;;;;;;5.00;4.13;;;13.80;89.70;;;;;;5038100;28;20594;-66
2023/03/19 12:29:59;;;;;;;4.05;3.60;;;13.90;90.20;;;;;;5030347;28;20089;-66
2023/03/19 12:32:50;;;;;;;5.25;3.50;;;13.90;86.50;;;;;;5038255;28;20045;-66
2023/03/19 12:35:21;;;;;;;4.03;3.60;;;14.20;88.90;;;;;;5038339;28;20387;-66
2023/03/19 12:38:03;;;;;;;5.82;3.75;;;14.60;90.00;;;;;;5044218;28;20044;-66
2023/03/19 12:40:35;;;;;;;7.25;3.90;;;14.70;80.40;;;;;;5041851;28;20514;-65
2023/03/19 12:43:15;;;;;;;4.72;4.00;;;14.80;78.80;;;;;;5043282;28;20040;-66
2023/03/19 12:45:46;;;;;;;;;;;15.10;81.60;;;;;;5039916;28;20193;-65
2023/03/19 12:48:36;;;;;;;5.15;4.20;;;15.20;78.90;;;;;;5040641;28;19924;-66
2023/03/19 12:51:06;;;;;;;3.90;3.60;;;15.20;76.10;;;;;;5050002;28;20052;-65